Página principal
METAR-TAF:

METAR-TAF

Aeroportos :

Aeroporto Internacional Diori Hamani

Niamey, Níger

latitude: 13-29N, longitude: 002-10E, altura: 223 m

Observação actual do tempo

O boletim foi feito há 29 minutos, às 14:00 UTC
Vento 9 kt de su-sudeste, variando entre este e sul
Temperatura 42°C
Humidade 9%
Pressão 1007 hPa
Visibilidade: 6000 m

METAR: DRRN 201400Z 15009KT 100V190 6000 NSC 42/02 Q1007 NOSIG

Hora: 15:29 (14:29 UTC)

Previsão

O boletim foi feito há 3 horas e 29 minutos, às 11:00 UTC
Previsão válida de 20 às 12 UTC a 21 às 18 UTC
Vento 10 kt de sudeste
Visibilidade: 6000 m
Temporariamente
de 20 às 17 UTC a 20 às 20 UTC
Visibilidade: 2500 m
poeira extensa
Temporariamente
de 21 às 06 UTC a 21 às 10 UTC
Visibilidade: 2500 m
poeira extensa

TAF: DRRN 201100Z 2012/2118 13010KT 6000 NSC TEMPO 2017/2020 2500 DU TEMPO 2106/2110 2500 DU

Observações e previsões do tempo de mais de 4000 aeroportos (mensagens METAR e TAF).

As estações disponíveis são os pontos amarelos e vermelhos sobre o mapa.

Mova o rato sobre o mapa para ver o nome da estação.

Depois clique no ponto para visualizar as observações e previsões meteorológicas.

Para alterar o mapa : clique nos botões verdes com uma cruz preta para aumentar o zoom; no botão verde com uma pitada de zoom; ou nas setas verdes para mapas adjacentes.


METAR-TAF: